sensor_id;sensor_type;location;lat;lon;timestamp;P1;durP1;ratioP1;P2;durP2;ratioP2
9823;SDS011;4951;50.778;7.196;2022-08-25T00:00:29;4.15;;;2.35;;
9823;SDS011;4951;50.778;7.196;2022-08-25T00:02:58;4.10;;;2.38;;
9823;SDS011;4951;50.778;7.196;2022-08-25T00:05:30;5.28;;;2.60;;
9823;SDS011;4951;50.778;7.196;2022-08-25T00:08:02;3.25;;;2.15;;
9823;SDS011;4951;50.778;7.196;2022-08-25T00:10:42;5.15;;;2.55;;
9823;SDS011;4951;50.778;7.196;2022-08-25T00:13:19;2.78;;;2.50;;
9823;SDS011;4951;50.778;7.196;2022-08-25T00:15:47;4.50;;;2.17;;
9823;SDS011;4951;50.778;7.196;2022-08-25T00:18:14;2.67;;;2.20;;
9823;SDS011;4951;50.778;7.196;2022-08-25T00:20:43;5.65;;;2.63;;
9823;SDS011;4951;50.778;7.196;2022-08-25T00:23:21;3.08;;;2.50;;
9823;SDS011;4951;50.778;7.196;2022-08-25T00:25:51;3.42;;;2.58;;
9823;SDS011;4951;50.778;7.196;2022-08-25T00:28:19;3.50;;;2.72;;
9823;SDS011;4951;50.778;7.196;2022-08-25T00:30:47;2.83;;;2.42;;
9823;SDS011;4951;50.778;7.196;2022-08-25T00:33:15;4.15;;;2.50;;
9823;SDS011;4951;50.778;7.196;2022-08-25T00:35:50;3.35;;;2.33;;
9823;SDS011;4951;50.778;7.196;2022-08-25T00:38:21;3.60;;;2.47;;
9823;SDS011;4951;50.778;7.196;2022-08-25T00:40:52;3.63;;;2.67;;
9823;SDS011;4951;50.778;7.196;2022-08-25T00:43:35;2.50;;;2.00;;
9823;SDS011;4951;50.778;7.196;2022-08-25T00:46:46;2.78;;;2.28;;
9823;SDS011;4951;50.778;7.196;2022-08-25T00:49:22;3.67;;;2.50;;
9823;SDS011;4951;50.778;7.196;2022-08-25T00:52:00;2.85;;;2.28;;
9823;SDS011;4951;50.778;7.196;2022-08-25T00:54:31;2.40;;;2.13;;
9823;SDS011;4951;50.778;7.196;2022-08-25T00:57:09;2.70;;;2.03;;
9823;SDS011;4951;50.778;7.196;2022-08-25T00:59:39;7.13;;;2.30;;
9823;SDS011;4951;50.778;7.196;2022-08-25T01:02:21;3.70;;;2.40;;
9823;SDS011;4951;50.778;7.196;2022-08-25T01:04:49;2.80;;;2.20;;
9823;SDS011;4951;50.778;7.196;2022-08-25T01:07:17;6.70;;;2.40;;
9823;SDS011;4951;50.778;7.196;2022-08-25T01:09:46;3.55;;;2.38;;
9823;SDS011;4951;50.778;7.196;2022-08-25T01:12:36;2.58;;;2.03;;
9823;SDS011;4951;50.778;7.196;2022-08-25T01:15:04;4.20;;;2.25;;
9823;SDS011;4951;50.778;7.196;2022-08-25T01:17:45;2.95;;;2.25;;
9823;SDS011;4951;50.778;7.196;2022-08-25T01:20:16;3.33;;;2.40;;
9823;SDS011;4951;50.778;7.196;2022-08-25T01:22:48;2.65;;;2.45;;
9823;SDS011;4951;50.778;7.196;2022-08-25T01:25:19;2.58;;;2.30;;
9823;SDS011;4951;50.778;7.196;2022-08-25T01:27:55;5.38;;;2.20;;
9823;SDS011;4951;50.778;7.196;2022-08-25T01:30:23;2.90;;;2.60;;
9823;SDS011;4951;50.778;7.196;2022-08-25T01:32:51;3.28;;;2.42;;
9823;SDS011;4951;50.778;7.196;2022-08-25T01:35:18;7.30;;;2.25;;
9823;SDS011;4951;50.778;7.196;2022-08-25T01:37:45;2.53;;;2.33;;
9823;SDS011;4951;50.778;7.196;2022-08-25T01:40:20;3.15;;;2.40;;
9823;SDS011;4951;50.778;7.196;2022-08-25T01:42:52;2.88;;;2.25;;
9823;SDS011;4951;50.778;7.196;2022-08-25T01:45:32;3.75;;;2.13;;
9823;SDS011;4951;50.778;7.196;2022-08-25T01:48:00;4.87;;;2.20;;
9823;SDS011;4951;50.778;7.196;2022-08-25T01:50:28;2.72;;;2.22;;
9823;SDS011;4951;50.778;7.196;2022-08-25T01:52:59;3.95;;;2.28;;
9823;SDS011;4951;50.778;7.196;2022-08-25T01:55:30;4.00;;;2.40;;
9823;SDS011;4951;50.778;7.196;2022-08-25T01:58:16;3.33;;;2.55;;
9823;SDS011;4951;50.778;7.196;2022-08-25T02:00:44;4.88;;;2.53;;
9823;SDS011;4951;50.778;7.196;2022-08-25T02:03:12;2.80;;;2.40;;
9823;SDS011;4951;50.778;7.196;2022-08-25T02:05:39;3.17;;;2.30;;
9823;SDS011;4951;50.778;7.196;2022-08-25T02:08:08;4.63;;;2.27;;
9823;SDS011;4951;50.778;7.196;2022-08-25T02:10:37;3.07;;;2.37;;
9823;SDS011;4951;50.778;7.196;2022-08-25T02:13:05;3.67;;;2.60;;
9823;SDS011;4951;50.778;7.196;2022-08-25T02:15:33;3.87;;;2.20;;
9823;SDS011;4951;50.778;7.196;2022-08-25T02:18:01;3.77;;;2.33;;
9823;SDS011;4951;50.778;7.196;2022-08-25T02:20:31;2.77;;;2.40;;
9823;SDS011;4951;50.778;7.196;2022-08-25T02:22:59;3.38;;;2.33;;
9823;SDS011;4951;50.778;7.196;2022-08-25T02:25:28;4.15;;;2.20;;
9823;SDS011;4951;50.778;7.196;2022-08-25T02:27:57;3.00;;;2.30;;
9823;SDS011;4951;50.778;7.196;2022-08-25T02:30:27;4.07;;;2.40;;
9823;SDS011;4951;50.778;7.196;2022-08-25T02:32:54;3.63;;;2.30;;
9823;SDS011;4951;50.778;7.196;2022-08-25T02:35:22;2.77;;;2.27;;
9823;SDS011;4951;50.778;7.196;2022-08-25T02:37:49;4.47;;;2.57;;
9823;SDS011;4951;50.778;7.196;2022-08-25T02:40:18;4.27;;;2.47;;
9823;SDS011;4951;50.778;7.196;2022-08-25T02:42:50;4.63;;;2.33;;
9823;SDS011;4951;50.778;7.196;2022-08-25T02:45:18;2.50;;;2.20;;
9823;SDS011;4951;50.778;7.196;2022-08-25T02:47:45;2.47;;;1.83;;
9823;SDS011;4951;50.778;7.196;2022-08-25T02:50:13;4.97;;;2.07;;
9823;SDS011;4951;50.778;7.196;2022-08-25T02:52:41;4.07;;;2.30;;
9823;SDS011;4951;50.778;7.196;2022-08-25T02:55:09;2.80;;;2.47;;
9823;SDS011;4951;50.778;7.196;2022-08-25T02:57:38;3.70;;;2.73;;
9823;SDS011;4951;50.778;7.196;2022-08-25T03:00:10;2.97;;;2.47;;
9823;SDS011;4951;50.778;7.196;2022-08-25T03:02:43;2.50;;;2.30;;
9823;SDS011;4951;50.778;7.196;2022-08-25T03:05:11;3.97;;;2.50;;
9823;SDS011;4951;50.778;7.196;2022-08-25T03:07:39;3.47;;;2.40;;
9823;SDS011;4951;50.778;7.196;2022-08-25T03:10:10;3.20;;;2.50;;
9823;SDS011;4951;50.778;7.196;2022-08-25T03:12:40;5.07;;;2.83;;
9823;SDS011;4951;50.778;7.196;2022-08-25T03:15:13;3.40;;;2.50;;
9823;SDS011;4951;50.778;7.196;2022-08-25T03:17:42;3.37;;;2.77;;
9823;SDS011;4951;50.778;7.196;2022-08-25T03:20:09;6.23;;;2.67;;
9823;SDS011;4951;50.778;7.196;2022-08-25T03:22:40;3.40;;;3.10;;
9823;SDS011;4951;50.778;7.196;2022-08-25T03:25:09;3.47;;;2.60;;
9823;SDS011;4951;50.778;7.196;2022-08-25T03:27:55;4.03;;;2.70;;
9823;SDS011;4951;50.778;7.196;2022-08-25T03:30:24;3.27;;;2.60;;
9823;SDS011;4951;50.778;7.196;2022-08-25T03:32:53;3.87;;;2.60;;
9823;SDS011;4951;50.778;7.196;2022-08-25T03:35:27;3.07;;;2.80;;
9823;SDS011;4951;50.778;7.196;2022-08-25T03:37:55;4.90;;;2.70;;
9823;SDS011;4951;50.778;7.196;2022-08-25T03:40:24;4.23;;;2.60;;
9823;SDS011;4951;50.778;7.196;2022-08-25T03:42:55;3.47;;;2.80;;
9823;SDS011;4951;50.778;7.196;2022-08-25T03:45:27;3.50;;;2.50;;
9823;SDS011;4951;50.778;7.196;2022-08-25T03:47:55;2.80;;;2.60;;
9823;SDS011;4951;50.778;7.196;2022-08-25T03:50:22;4.27;;;2.70;;
9823;SDS011;4951;50.778;7.196;2022-08-25T03:52:50;4.90;;;2.57;;
9823;SDS011;4951;50.778;7.196;2022-08-25T03:55:19;2.97;;;2.63;;
9823;SDS011;4951;50.778;7.196;2022-08-25T03:57:48;6.47;;;2.60;;
9823;SDS011;4951;50.778;7.196;2022-08-25T04:00:19;6.03;;;3.13;;
9823;SDS011;4951;50.778;7.196;2022-08-25T04:02:48;3.73;;;2.67;;
9823;SDS011;4951;50.778;7.196;2022-08-25T04:05:16;3.80;;;2.60;;
9823;SDS011;4951;50.778;7.196;2022-08-25T04:07:44;2.90;;;2.60;;
9823;SDS011;4951;50.778;7.196;2022-08-25T04:10:12;4.07;;;2.80;;
9823;SDS011;4951;50.778;7.196;2022-08-25T04:12:46;4.47;;;3.03;;
9823;SDS011;4951;50.778;7.196;2022-08-25T04:15:28;3.00;;;2.57;;
9823;SDS011;4951;50.778;7.196;2022-08-25T04:18:03;3.23;;;2.70;;
9823;SDS011;4951;50.778;7.196;2022-08-25T04:20:35;4.43;;;2.43;;
9823;SDS011;4951;50.778;7.196;2022-08-25T04:23:02;2.83;;;2.53;;
9823;SDS011;4951;50.778;7.196;2022-08-25T04:25:29;2.83;;;2.43;;
9823;SDS011;4951;50.778;7.196;2022-08-25T04:27:57;4.63;;;3.27;;
9823;SDS011;4951;50.778;7.196;2022-08-25T04:30:31;5.10;;;2.83;;
9823;SDS011;4951;50.778;7.196;2022-08-25T04:33:09;4.20;;;2.70;;
9823;SDS011;4951;50.778;7.196;2022-08-25T04:35:39;3.73;;;2.43;;
9823;SDS011;4951;50.778;7.196;2022-08-25T04:38:06;4.50;;;2.50;;
9823;SDS011;4951;50.778;7.196;2022-08-25T04:40:34;3.40;;;2.53;;
9823;SDS011;4951;50.778;7.196;2022-08-25T04:43:01;4.03;;;3.10;;
9823;SDS011;4951;50.778;7.196;2022-08-25T04:45:29;5.03;;;3.00;;
9823;SDS011;4951;50.778;7.196;2022-08-25T04:47:56;3.97;;;2.97;;
9823;SDS011;4951;50.778;7.196;2022-08-25T04:50:26;5.93;;;2.90;;
9823;SDS011;4951;50.778;7.196;2022-08-25T04:53:01;6.80;;;3.00;;
9823;SDS011;4951;50.778;7.196;2022-08-25T04:55:29;3.40;;;3.10;;
9823;SDS011;4951;50.778;7.196;2022-08-25T04:57:58;4.27;;;2.90;;
9823;SDS011;4951;50.778;7.196;2022-08-25T05:00:49;5.60;;;3.13;;
9823;SDS011;4951;50.778;7.196;2022-08-25T05:03:33;6.80;;;3.13;;
9823;SDS011;4951;50.778;7.196;2022-08-25T05:06:06;4.20;;;2.90;;
9823;SDS011;4951;50.778;7.196;2022-08-25T05:08:34;3.87;;;3.00;;
9823;SDS011;4951;50.778;7.196;2022-08-25T05:11:05;3.53;;;3.10;;
9823;SDS011;4951;50.778;7.196;2022-08-25T05:13:49;4.23;;;3.10;;
9823;SDS011;4951;50.778;7.196;2022-08-25T05:16:19;4.47;;;3.00;;
9823;SDS011;4951;50.778;7.196;2022-08-25T05:18:50;3.00;;;2.67;;
9823;SDS011;4951;50.778;7.196;2022-08-25T05:21:21;3.40;;;3.10;;
9823;SDS011;4951;50.778;7.196;2022-08-25T05:23:54;4.43;;;3.10;;
9823;SDS011;4951;50.778;7.196;2022-08-25T05:26:23;4.03;;;3.30;;
9823;SDS011;4951;50.778;7.196;2022-08-25T05:28:52;4.03;;;3.00;;
9823;SDS011;4951;50.778;7.196;2022-08-25T05:31:21;3.90;;;3.03;;
9823;SDS011;4951;50.778;7.196;2022-08-25T05:33:50;3.77;;;3.40;;
9823;SDS011;4951;50.778;7.196;2022-08-25T05:36:20;6.67;;;2.90;;
9823;SDS011;4951;50.778;7.196;2022-08-25T05:38:50;5.73;;;2.83;;
9823;SDS011;4951;50.778;7.196;2022-08-25T05:41:21;5.07;;;3.73;;
9823;SDS011;4951;50.778;7.196;2022-08-25T05:44:02;4.50;;;3.47;;
9823;SDS011;4951;50.778;7.196;2022-08-25T05:46:32;7.37;;;3.63;;
9823;SDS011;4951;50.778;7.196;2022-08-25T05:48:59;6.80;;;3.80;;
9823;SDS011;4951;50.778;7.196;2022-08-25T05:51:39;7.47;;;3.43;;
9823;SDS011;4951;50.778;7.196;2022-08-25T05:54:11;7.70;;;3.30;;
9823;SDS011;4951;50.778;7.196;2022-08-25T05:56:42;5.13;;;3.30;;
9823;SDS011;4951;50.778;7.196;2022-08-25T05:59:13;7.13;;;3.57;;
9823;SDS011;4951;50.778;7.196;2022-08-25T06:01:42;5.73;;;3.40;;
9823;SDS011;4951;50.778;7.196;2022-08-25T06:05:18;5.37;;;3.50;;
9823;SDS011;4951;50.778;7.196;2022-08-25T06:21:13;5.43;;;3.30;;
9823;SDS011;4951;50.778;7.196;2022-08-25T06:25:42;6.07;;;4.00;;
9823;SDS011;4951;50.778;7.196;2022-08-25T06:29:09;4.88;;;3.60;;
9823;SDS011;4951;50.778;7.196;2022-08-25T06:32:15;4.90;;;3.75;;
9823;SDS011;4951;50.778;7.196;2022-08-25T06:34:57;9.05;;;4.10;;
9823;SDS011;4951;50.778;7.196;2022-08-25T06:38:35;4.30;;;3.72;;
9823;SDS011;4951;50.778;7.196;2022-08-25T06:41:07;8.00;;;4.00;;
9823;SDS011;4951;50.778;7.196;2022-08-25T06:43:36;5.47;;;3.67;;
9823;SDS011;4951;50.778;7.196;2022-08-25T06:46:08;8.15;;;4.03;;
9823;SDS011;4951;50.778;7.196;2022-08-25T06:48:56;7.88;;;3.65;;
9823;SDS011;4951;50.778;7.196;2022-08-25T06:51:28;5.88;;;3.88;;
9823;SDS011;4951;50.778;7.196;2022-08-25T06:54:05;4.70;;;3.42;;
9823;SDS011;4951;50.778;7.196;2022-08-25T06:56:36;5.57;;;3.95;;
9823;SDS011;4951;50.778;7.196;2022-08-25T06:59:07;5.63;;;3.72;;
9823;SDS011;4951;50.778;7.196;2022-08-25T07:01:47;7.00;;;3.92;;
9823;SDS011;4951;50.778;7.196;2022-08-25T07:04:35;5.20;;;4.13;;
9823;SDS011;4951;50.778;7.196;2022-08-25T07:07:19;9.60;;;4.10;;
9823;SDS011;4951;50.778;7.196;2022-08-25T07:09:51;4.28;;;3.92;;
9823;SDS011;4951;50.778;7.196;2022-08-25T07:12:37;8.30;;;4.35;;
9823;SDS011;4951;50.778;7.196;2022-08-25T07:15:19;5.20;;;3.92;;
9823;SDS011;4951;50.778;7.196;2022-08-25T07:17:49;6.25;;;4.57;;
9823;SDS011;4951;50.778;7.196;2022-08-25T07:20:23;10.75;;;4.00;;
9823;SDS011;4951;50.778;7.196;2022-08-25T07:23:02;4.32;;;3.90;;
9823;SDS011;4951;50.778;7.196;2022-08-25T07:28:50;5.32;;;4.30;;
9823;SDS011;4951;50.778;7.196;2022-08-25T07:31:29;7.93;;;4.25;;
9823;SDS011;4951;50.778;7.196;2022-08-25T07:35:22;4.47;;;3.95;;
9823;SDS011;4951;50.778;7.196;2022-08-25T07:37:43;5.28;;;3.92;;
9823;SDS011;4951;50.778;7.196;2022-08-25T07:40:14;5.03;;;4.53;;
9823;SDS011;4951;50.778;7.196;2022-08-25T07:42:58;6.03;;;4.15;;
9823;SDS011;4951;50.778;7.196;2022-08-25T07:45:59;6.18;;;4.40;;
9823;SDS011;4951;50.778;7.196;2022-08-25T07:48:30;4.47;;;3.97;;
9823;SDS011;4951;50.778;7.196;2022-08-25T07:51:20;5.45;;;4.35;;
9823;SDS011;4951;50.778;7.196;2022-08-25T07:53:51;4.82;;;4.20;;
9823;SDS011;4951;50.778;7.196;2022-08-25T07:56:35;4.78;;;4.00;;
9823;SDS011;4951;50.778;7.196;2022-08-25T08:03:39;5.47;;;3.90;;
9823;SDS011;4951;50.778;7.196;2022-08-25T08:06:35;6.57;;;3.72;;
9823;SDS011;4951;50.778;7.196;2022-08-25T08:09:04;5.35;;;3.67;;
9823;SDS011;4951;50.778;7.196;2022-08-25T08:12:47;5.32;;;3.60;;
9823;SDS011;4951;50.778;7.196;2022-08-25T08:15:27;6.78;;;4.18;;
9823;SDS011;4951;50.778;7.196;2022-08-25T08:17:54;5.43;;;3.70;;
9823;SDS011;4951;50.778;7.196;2022-08-25T08:20:21;4.80;;;4.07;;
9823;SDS011;4951;50.778;7.196;2022-08-25T08:22:58;4.40;;;4.00;;
9823;SDS011;4951;50.778;7.196;2022-08-25T08:25:25;3.97;;;3.67;;
9823;SDS011;4951;50.778;7.196;2022-08-25T08:27:57;5.20;;;3.90;;
9823;SDS011;4951;50.778;7.196;2022-08-25T08:30:25;5.57;;;3.63;;
9823;SDS011;4951;50.778;7.196;2022-08-25T08:33:01;8.55;;;3.65;;
9823;SDS011;4951;50.778;7.196;2022-08-25T08:35:29;5.97;;;3.70;;
9823;SDS011;4951;50.778;7.196;2022-08-25T08:37:56;4.00;;;3.60;;
9823;SDS011;4951;50.778;7.196;2022-08-25T08:40:24;5.22;;;3.72;;
9823;SDS011;4951;50.778;7.196;2022-08-25T08:43:10;5.40;;;3.85;;
9823;SDS011;4951;50.778;7.196;2022-08-25T08:45:44;6.63;;;3.80;;
9823;SDS011;4951;50.778;7.196;2022-08-25T08:48:33;5.40;;;3.38;;
9823;SDS011;4951;50.778;7.196;2022-08-25T08:51:13;7.25;;;3.75;;
9823;SDS011;4951;50.778;7.196;2022-08-25T08:53:53;5.22;;;3.47;;
9823;SDS011;4951;50.778;7.196;2022-08-25T08:56:28;5.72;;;3.45;;
9823;SDS011;4951;50.778;7.196;2022-08-25T08:59:03;5.07;;;3.33;;
9823;SDS011;4951;50.778;7.196;2022-08-25T09:01:40;4.05;;;3.38;;
9823;SDS011;4951;50.778;7.196;2022-08-25T09:04:25;7.15;;;3.08;;
9823;SDS011;4951;50.778;7.196;2022-08-25T09:07:05;4.32;;;3.22;;
9823;SDS011;4951;50.778;7.196;2022-08-25T09:09:39;3.85;;;3.45;;
9823;SDS011;4951;50.778;7.196;2022-08-25T09:12:21;3.90;;;3.50;;
9823;SDS011;4951;50.778;7.196;2022-08-25T09:15:03;4.38;;;3.97;;
9823;SDS011;4951;50.778;7.196;2022-08-25T09:17:40;10.43;;;3.50;;
9823;SDS011;4951;50.778;7.196;2022-08-25T09:20:44;4.18;;;3.40;;
9823;SDS011;4951;50.778;7.196;2022-08-25T09:23:45;9.45;;;4.00;;
9823;SDS011;4951;50.778;7.196;2022-08-25T09:26:26;5.25;;;3.97;;
9823;SDS011;4951;50.778;7.196;2022-08-25T09:29:03;6.13;;;3.78;;
9823;SDS011;4951;50.778;7.196;2022-08-25T09:31:38;3.92;;;3.30;;
9823;SDS011;4951;50.778;7.196;2022-08-25T09:34:17;5.80;;;3.80;;
9823;SDS011;4951;50.778;7.196;2022-08-25T09:36:46;6.05;;;4.22;;
9823;SDS011;4951;50.778;7.196;2022-08-25T09:39:17;5.03;;;4.20;;
9823;SDS011;4951;50.778;7.196;2022-08-25T09:41:58;5.10;;;3.80;;
9823;SDS011;4951;50.778;7.196;2022-08-25T09:44:33;6.50;;;4.07;;
9823;SDS011;4951;50.778;7.196;2022-08-25T09:47:19;4.78;;;3.75;;
9823;SDS011;4951;50.778;7.196;2022-08-25T09:53:10;4.55;;;4.15;;
9823;SDS011;4951;50.778;7.196;2022-08-25T09:55:40;6.45;;;3.92;;
9823;SDS011;4951;50.778;7.196;2022-08-25T09:58:15;6.40;;;3.97;;
9823;SDS011;4951;50.778;7.196;2022-08-25T10:03:59;4.93;;;3.90;;
9823;SDS011;4951;50.778;7.196;2022-08-25T10:06:44;4.40;;;3.75;;
9823;SDS011;4951;50.778;7.196;2022-08-25T10:09:22;4.82;;;4.07;;
9823;SDS011;4951;50.778;7.196;2022-08-25T10:11:53;3.75;;;3.45;;
9823;SDS011;4951;50.778;7.196;2022-08-25T10:14:27;4.20;;;3.90;;
9823;SDS011;4951;50.778;7.196;2022-08-25T10:17:16;5.30;;;4.25;;
9823;SDS011;4951;50.778;7.196;2022-08-25T10:19:49;4.93;;;3.75;;
9823;SDS011;4951;50.778;7.196;2022-08-25T10:25:40;4.25;;;3.40;;
9823;SDS011;4951;50.778;7.196;2022-08-25T10:28:19;4.45;;;3.25;;
9823;SDS011;4951;50.778;7.196;2022-08-25T10:30:57;6.82;;;4.13;;
9823;SDS011;4951;50.778;7.196;2022-08-25T10:34:07;4.18;;;3.60;;
9823;SDS011;4951;50.778;7.196;2022-08-25T10:36:46;4.13;;;3.13;;
9823;SDS011;4951;50.778;7.196;2022-08-25T10:39:29;4.95;;;3.42;;
9823;SDS011;4951;50.778;7.196;2022-08-25T10:42:10;3.40;;;3.10;;
9823;SDS011;4951;50.778;7.196;2022-08-25T10:44:50;4.45;;;3.78;;
9823;SDS011;4951;50.778;7.196;2022-08-25T10:47:53;5.85;;;3.60;;
9823;SDS011;4951;50.778;7.196;2022-08-25T10:53:25;4.60;;;3.20;;
9823;SDS011;4951;50.778;7.196;2022-08-25T10:56:09;3.80;;;3.45;;
9823;SDS011;4951;50.778;7.196;2022-08-25T11:02:14;5.80;;;3.47;;
9823;SDS011;4951;50.778;7.196;2022-08-25T11:05:04;3.58;;;3.25;;
9823;SDS011;4951;50.778;7.196;2022-08-25T11:07:39;3.70;;;3.30;;
9823;SDS011;4951;50.778;7.196;2022-08-25T11:13:23;3.42;;;3.15;;
9823;SDS011;4951;50.778;7.196;2022-08-25T11:16:32;3.45;;;3.05;;
9823;SDS011;4951;50.778;7.196;2022-08-25T11:19:06;3.40;;;3.10;;
9823;SDS011;4951;50.778;7.196;2022-08-25T11:21:41;4.30;;;3.30;;
9823;SDS011;4951;50.778;7.196;2022-08-25T11:24:28;5.10;;;3.10;;
9823;SDS011;4951;50.778;7.196;2022-08-25T11:27:17;5.03;;;3.35;;
9823;SDS011;4951;50.778;7.196;2022-08-25T11:29:55;3.80;;;3.40;;
9823;SDS011;4951;50.778;7.196;2022-08-25T11:32:27;8.00;;;3.33;;
9823;SDS011;4951;50.778;7.196;2022-08-25T11:35:10;3.97;;;2.80;;
9823;SDS011;4951;50.778;7.196;2022-08-25T11:38:05;4.05;;;3.10;;
9823;SDS011;4951;50.778;7.196;2022-08-25T11:40:49;3.15;;;2.85;;
9823;SDS011;4951;50.778;7.196;2022-08-25T11:43:39;4.05;;;3.20;;
9823;SDS011;4951;50.778;7.196;2022-08-25T11:46:36;3.55;;;3.03;;
9823;SDS011;4951;50.778;7.196;2022-08-25T11:55:15;3.40;;;3.10;;
9823;SDS011;4951;50.778;7.196;2022-08-25T11:57:45;3.92;;;3.08;;
9823;SDS011;4951;50.778;7.196;2022-08-25T12:00:18;4.13;;;2.72;;
9823;SDS011;4951;50.778;7.196;2022-08-25T12:06:28;6.97;;;3.13;;
9823;SDS011;4951;50.778;7.196;2022-08-25T12:09:19;3.67;;;2.90;;
9823;SDS011;4951;50.778;7.196;2022-08-25T12:15:11;5.60;;;3.40;;
9823;SDS011;4951;50.778;7.196;2022-08-25T12:18:06;3.05;;;2.85;;
9823;SDS011;4951;50.778;7.196;2022-08-25T12:29:31;2.95;;;2.65;;
9823;SDS011;4951;50.778;7.196;2022-08-25T12:32:14;4.57;;;3.05;;
9823;SDS011;4951;50.778;7.196;2022-08-25T12:35:11;3.13;;;2.58;;
9823;SDS011;4951;50.778;7.196;2022-08-25T12:38:02;2.80;;;2.60;;
9823;SDS011;4951;50.778;7.196;2022-08-25T12:40:37;3.30;;;3.00;;
9823;SDS011;4951;50.778;7.196;2022-08-25T12:43:44;3.72;;;2.60;;
9823;SDS011;4951;50.778;7.196;2022-08-25T12:47:04;4.32;;;2.70;;
9823;SDS011;4951;50.778;7.196;2022-08-25T12:50:28;9.00;;;2.80;;
9823;SDS011;4951;50.778;7.196;2022-08-25T12:53:09;3.45;;;3.15;;
9823;SDS011;4951;50.778;7.196;2022-08-25T12:55:43;2.88;;;2.67;;
9823;SDS011;4951;50.778;7.196;2022-08-25T12:58:20;2.85;;;2.65;;
9823;SDS011;4951;50.778;7.196;2022-08-25T13:01:03;2.75;;;2.15;;
9823;SDS011;4951;50.778;7.196;2022-08-25T13:03:50;2.53;;;2.33;;
9823;SDS011;4951;50.778;7.196;2022-08-25T13:06:35;2.53;;;2.30;;
9823;SDS011;4951;50.778;7.196;2022-08-25T13:09:30;3.03;;;2.42;;
9823;SDS011;4951;50.778;7.196;2022-08-25T13:15:37;4.00;;;2.38;;
9823;SDS011;4951;50.778;7.196;2022-08-25T13:18:38;3.03;;;2.78;;
9823;SDS011;4951;50.778;7.196;2022-08-25T13:21:17;3.25;;;2.75;;
9823;SDS011;4951;50.778;7.196;2022-08-25T13:24:25;4.38;;;2.95;;
9823;SDS011;4951;50.778;7.196;2022-08-25T13:26:59;4.38;;;2.65;;
9823;SDS011;4951;50.778;7.196;2022-08-25T13:29:30;4.13;;;2.90;;
9823;SDS011;4951;50.778;7.196;2022-08-25T13:32:03;2.90;;;2.60;;
9823;SDS011;4951;50.778;7.196;2022-08-25T13:34:34;4.88;;;2.60;;
9823;SDS011;4951;50.778;7.196;2022-08-25T13:37:07;3.17;;;2.42;;
9823;SDS011;4951;50.778;7.196;2022-08-25T13:40:24;2.90;;;2.60;;
9823;SDS011;4951;50.778;7.196;2022-08-25T13:43:44;3.55;;;2.60;;
9823;SDS011;4951;50.778;7.196;2022-08-25T13:46:32;3.10;;;2.60;;
9823;SDS011;4951;50.778;7.196;2022-08-25T13:49:11;2.58;;;2.30;;
9823;SDS011;4951;50.778;7.196;2022-08-25T13:52:26;2.50;;;2.30;;
9823;SDS011;4951;50.778;7.196;2022-08-25T13:55:05;3.45;;;2.20;;
9823;SDS011;4951;50.778;7.196;2022-08-25T13:58:05;3.45;;;2.30;;
9823;SDS011;4951;50.778;7.196;2022-08-25T14:01:25;4.00;;;2.45;;
9823;SDS011;4951;50.778;7.196;2022-08-25T14:07:53;6.15;;;2.50;;
9823;SDS011;4951;50.778;7.196;2022-08-25T14:10:30;2.83;;;2.40;;
9823;SDS011;4951;50.778;7.196;2022-08-25T14:13:30;2.97;;;2.78;;
9823;SDS011;4951;50.778;7.196;2022-08-25T14:16:10;5.03;;;2.50;;
9823;SDS011;4951;50.778;7.196;2022-08-25T14:18:59;2.80;;;2.50;;
9823;SDS011;4951;50.778;7.196;2022-08-25T14:21:37;3.72;;;2.25;;
9823;SDS011;4951;50.778;7.196;2022-08-25T14:24:34;2.78;;;2.47;;
9823;SDS011;4951;50.778;7.196;2022-08-25T14:27:34;2.63;;;2.42;;
9823;SDS011;4951;50.778;7.196;2022-08-25T14:30:13;2.67;;;2.30;;
9823;SDS011;4951;50.778;7.196;2022-08-25T14:32:41;2.50;;;2.20;;
9823;SDS011;4951;50.778;7.196;2022-08-25T14:35:13;4.03;;;2.30;;
9823;SDS011;4951;50.778;7.196;2022-08-25T14:37:51;6.22;;;2.42;;
9823;SDS011;4951;50.778;7.196;2022-08-25T14:41:01;2.20;;;2.03;;
9823;SDS011;4951;50.778;7.196;2022-08-25T14:43:43;2.97;;;2.42;;
9823;SDS011;4951;50.778;7.196;2022-08-25T14:46:45;2.75;;;2.20;;
9823;SDS011;4951;50.778;7.196;2022-08-25T14:49:41;3.92;;;2.28;;
9823;SDS011;4951;50.778;7.196;2022-08-25T14:52:12;2.95;;;2.55;;
9823;SDS011;4951;50.778;7.196;2022-08-25T14:54:50;2.25;;;2.05;;
9823;SDS011;4951;50.778;7.196;2022-08-25T14:57:18;3.88;;;2.25;;
9823;SDS011;4951;50.778;7.196;2022-08-25T15:00:20;2.38;;;2.17;;
9823;SDS011;4951;50.778;7.196;2022-08-25T15:02:48;5.72;;;2.50;;
9823;SDS011;4951;50.778;7.196;2022-08-25T15:05:20;3.70;;;2.40;;
9823;SDS011;4951;50.778;7.196;2022-08-25T15:07:52;2.50;;;2.30;;
9823;SDS011;4951;50.778;7.196;2022-08-25T15:10:54;2.20;;;2.00;;
9823;SDS011;4951;50.778;7.196;2022-08-25T15:13:27;4.22;;;2.40;;
9823;SDS011;4951;50.778;7.196;2022-08-25T15:15:54;2.63;;;2.42;;
9823;SDS011;4951;50.778;7.196;2022-08-25T15:18:31;2.70;;;2.47;;
9823;SDS011;4951;50.778;7.196;2022-08-25T15:21:02;2.55;;;2.35;;
9823;SDS011;4951;50.778;7.196;2022-08-25T15:23:32;2.85;;;2.40;;
9823;SDS011;4951;50.778;7.196;2022-08-25T15:26:12;6.38;;;2.40;;
9823;SDS011;4951;50.778;7.196;2022-08-25T15:31:39;2.80;;;2.33;;
9823;SDS011;4951;50.778;7.196;2022-08-25T15:34:10;2.60;;;2.40;;
9823;SDS011;4951;50.778;7.196;2022-08-25T15:36:49;2.85;;;2.47;;
9823;SDS011;4951;50.778;7.196;2022-08-25T15:39:17;3.05;;;2.38;;
9823;SDS011;4951;50.778;7.196;2022-08-25T15:41:46;2.80;;;2.50;;
9823;SDS011;4951;50.778;7.196;2022-08-25T15:44:16;2.88;;;2.50;;
9823;SDS011;4951;50.778;7.196;2022-08-25T15:46:53;3.25;;;2.85;;
9823;SDS011;4951;50.778;7.196;2022-08-25T15:49:36;3.13;;;2.60;;
9823;SDS011;4951;50.778;7.196;2022-08-25T15:52:36;3.53;;;2.60;;
9823;SDS011;4951;50.778;7.196;2022-08-25T15:58:27;3.53;;;2.65;;
9823;SDS011;4951;50.778;7.196;2022-08-25T16:01:03;4.45;;;2.65;;
9823;SDS011;4951;50.778;7.196;2022-08-25T16:03:40;3.25;;;2.78;;
9823;SDS011;4951;50.778;7.196;2022-08-25T16:06:13;3.67;;;2.85;;
9823;SDS011;4951;50.778;7.196;2022-08-25T16:08:59;2.88;;;2.67;;
9823;SDS011;4951;50.778;7.196;2022-08-25T16:11:46;4.10;;;3.10;;
9823;SDS011;4951;50.778;7.196;2022-08-25T16:14:16;4.10;;;3.00;;
9823;SDS011;4951;50.778;7.196;2022-08-25T16:16:53;3.40;;;3.10;;
9823;SDS011;4951;50.778;7.196;2022-08-25T16:19:53;3.33;;;2.90;;
9823;SDS011;4951;50.778;7.196;2022-08-25T16:22:25;3.45;;;2.75;;
9823;SDS011;4951;50.778;7.196;2022-08-25T16:24:52;3.63;;;2.78;;
9823;SDS011;4951;50.778;7.196;2022-08-25T16:27:25;3.75;;;3.33;;
9823;SDS011;4951;50.778;7.196;2022-08-25T16:30:02;2.95;;;2.65;;
9823;SDS011;4951;50.778;7.196;2022-08-25T16:32:37;3.10;;;2.80;;
9823;SDS011;4951;50.778;7.196;2022-08-25T16:35:43;3.30;;;3.00;;
9823;SDS011;4951;50.778;7.196;2022-08-25T16:38:29;4.32;;;3.00;;
9823;SDS011;4951;50.778;7.196;2022-08-25T16:40:57;3.10;;;2.80;;
9823;SDS011;4951;50.778;7.196;2022-08-25T16:43:26;5.53;;;3.15;;
9823;SDS011;4951;50.778;7.196;2022-08-25T16:45:58;4.38;;;3.47;;
9823;SDS011;4951;50.778;7.196;2022-08-25T16:48:27;3.95;;;3.50;;
9823;SDS011;4951;50.778;7.196;2022-08-25T16:50:54;3.55;;;3.25;;
9823;SDS011;4951;50.778;7.196;2022-08-25T16:53:26;4.43;;;3.50;;
9823;SDS011;4951;50.778;7.196;2022-08-25T16:56:10;3.83;;;3.53;;
9823;SDS011;4951;50.778;7.196;2022-08-25T16:58:38;4.38;;;3.97;;
9823;SDS011;4951;50.778;7.196;2022-08-25T17:01:10;4.30;;;3.88;;
9823;SDS011;4951;50.778;7.196;2022-08-25T17:03:39;4.43;;;3.67;;
9823;SDS011;4951;50.778;7.196;2022-08-25T17:06:10;6.50;;;3.80;;
9823;SDS011;4951;50.778;7.196;2022-08-25T17:08:39;11.52;;;4.32;;
9823;SDS011;4951;50.778;7.196;2022-08-25T17:11:07;4.20;;;3.78;;
9823;SDS011;4951;50.778;7.196;2022-08-25T17:13:39;6.65;;;3.60;;
9823;SDS011;4951;50.778;7.196;2022-08-25T17:16:11;5.20;;;3.60;;
9823;SDS011;4951;50.778;7.196;2022-08-25T17:18:39;6.50;;;3.38;;
9823;SDS011;4951;50.778;7.196;2022-08-25T17:21:07;3.85;;;3.50;;
9823;SDS011;4951;50.778;7.196;2022-08-25T17:23:39;3.85;;;3.33;;
9823;SDS011;4951;50.778;7.196;2022-08-25T17:26:10;5.72;;;4.28;;
9823;SDS011;4951;50.778;7.196;2022-08-25T17:29:10;5.43;;;3.40;;
9823;SDS011;4951;50.778;7.196;2022-08-25T17:31:38;4.45;;;3.90;;
9823;SDS011;4951;50.778;7.196;2022-08-25T17:34:08;5.32;;;3.88;;
9823;SDS011;4951;50.778;7.196;2022-08-25T17:36:41;5.72;;;3.60;;